IBE1024 GCXO-LEPA
Flight info
| Callsign | IBE1024 |
|---|---|
| Flight time | 2h 41m |
| Altitude | 36000 |
| Route | KORAL UG5 SONSO UN871 ESS/N0430F380 UN871 OSDAM UM985 BARPA M985 PIMOS M445 RIXUR N851 RUXET |
| Aircraft | A20N/M-SDE2E3FGHIJ1RWXY/LB1 |
Departure
| Time | 2026-05-08 16:47 |
|---|---|
| Airport | Tenerife Norte-Ciudad de La Laguna Airport (GCXO) |
Arrival
| Time | 2026-05-08 19:28 |
|---|---|
| Airport | Palma de Mallorca Airport (LEPA) |
| Time | Latitude | Longitude | Altitude | Speed | Heading |
|---|---|---|---|---|---|
| 2026-05-08 16:47 | 28.58106 | -16.53383 | 9686 ft | 284 kts | 1° |
| 2026-05-08 16:47 | 28.60024 | -16.52714 | 10326 ft | 296 kts | 30° |
| 2026-05-08 16:47 | 28.61490 | -16.51072 | 10925 ft | 305 kts | 57° |
| 2026-05-08 16:47 | 28.62241 | -16.48783 | 11269 ft | 321 kts | 83° |
| 2026-05-08 16:48 | 28.62196 | -16.46193 | 11570 ft | 335 kts | 102° |
| 2026-05-08 16:48 | 28.61555 | -16.43593 | 11884 ft | 347 kts | 114° |
| 2026-05-08 16:48 | 28.60580 | -16.41089 | 12386 ft | 352 kts | 120° |
| 2026-05-08 16:48 | 28.59435 | -16.38597 | 12983 ft | 356 kts | 122° |
| 2026-05-08 16:49 | 28.58235 | -16.36139 | 13557 ft | 359 kts | 123° |
| 2026-05-08 16:49 | 28.57002 | -16.33632 | 14108 ft | 362 kts | 123° |
| 2026-05-08 16:49 | 28.55772 | -16.31132 | 14617 ft | 367 kts | 123° |
| 2026-05-08 16:49 | 28.54577 | -16.28522 | 15156 ft | 374 kts | 114° |
| 2026-05-08 16:50 | 28.54092 | -16.25612 | 15690 ft | 385 kts | 90° |
| 2026-05-08 16:50 | 28.54537 | -16.22572 | 16291 ft | 389 kts | 75° |
| 2026-05-08 16:50 | 28.55283 | -16.19603 | 16842 ft | 393 kts | 74° |
| 2026-05-08 16:50 | 28.56054 | -16.16615 | 17360 ft | 398 kts | 74° |
| 2026-05-08 16:51 | 28.56823 | -16.13577 | 17867 ft | 402 kts | 74° |
| 2026-05-08 16:51 | 28.57586 | -16.10491 | 18374 ft | 407 kts | 75° |
| 2026-05-08 16:51 | 28.58336 | -16.07398 | 18863 ft | 412 kts | 75° |
| 2026-05-08 16:51 | 28.59090 | -16.04248 | 19349 ft | 416 kts | 75° |
| 2026-05-08 16:52 | 28.59854 | -16.01040 | 19836 ft | 420 kts | 75° |
| 2026-05-08 16:52 | 28.60612 | -15.97841 | 20308 ft | 424 kts | 75° |
| 2026-05-08 16:52 | 28.61386 | -15.94586 | 20744 ft | 428 kts | 75° |
| 2026-05-08 16:52 | 28.62158 | -15.91342 | 21180 ft | 431 kts | 75° |
| 2026-05-08 16:53 | 28.63739 | -15.84672 | 22070 ft | 440 kts | 75° |
| 2026-05-08 16:53 | 28.64532 | -15.81316 | 22505 ft | 444 kts | 75° |
| 2026-05-08 16:53 | 28.65337 | -15.77899 | 22931 ft | 448 kts | 75° |
| 2026-05-08 16:54 | 28.66137 | -15.74502 | 23339 ft | 452 kts | 75° |
| 2026-05-08 16:54 | 28.66958 | -15.71007 | 23748 ft | 456 kts | 75° |
| 2026-05-08 16:54 | 28.67776 | -15.67524 | 24160 ft | 460 kts | 75° |
| 2026-05-08 16:54 | 28.68598 | -15.64017 | 24575 ft | 464 kts | 75° |
| 2026-05-08 16:55 | 28.69429 | -15.60465 | 24986 ft | 467 kts | 75° |
| 2026-05-08 16:55 | 28.70263 | -15.56898 | 25390 ft | 471 kts | 75° |
| 2026-05-08 16:55 | 28.71104 | -15.53296 | 25794 ft | 475 kts | 75° |
| 2026-05-08 16:55 | 28.71959 | -15.49626 | 26207 ft | 478 kts | 75° |
| 2026-05-08 16:56 | 28.72808 | -15.45982 | 26604 ft | 482 kts | 75° |
| 2026-05-08 16:56 | 28.73666 | -15.42290 | 26907 ft | 488 kts | 75° |
| 2026-05-08 16:56 | 28.74535 | -15.38550 | 27243 ft | 493 kts | 75° |
| 2026-05-08 16:56 | 28.75420 | -15.34735 | 27624 ft | 496 kts | 76° |
| 2026-05-08 16:57 | 28.76302 | -15.30934 | 27988 ft | 499 kts | 76° |
| 2026-05-08 16:57 | 28.77191 | -15.27089 | 28344 ft | 502 kts | 75° |
| 2026-05-08 16:57 | 28.78074 | -15.23266 | 28698 ft | 504 kts | 75° |
| 2026-05-08 16:57 | 28.78957 | -15.19437 | 29115 ft | 505 kts | 75° |
| 2026-05-08 16:58 | 28.79854 | -15.15544 | 29598 ft | 504 kts | 75° |
| 2026-05-08 16:58 | 28.80731 | -15.11729 | 30062 ft | 503 kts | 75° |
| 2026-05-08 16:58 | 28.81614 | -15.07883 | 30510 ft | 502 kts | 75° |
| 2026-05-08 16:58 | 28.82499 | -15.04018 | 30951 ft | 502 kts | 75° |
| 2026-05-08 16:59 | 28.83371 | -15.00205 | 31384 ft | 501 kts | 75° |
| 2026-05-08 16:59 | 28.84242 | -14.96390 | 31808 ft | 501 kts | 75° |
| 2026-05-08 16:59 | 28.85118 | -14.92545 | 32212 ft | 501 kts | 75° |
| 2026-05-08 16:59 | 28.85998 | -14.88683 | 32620 ft | 500 kts | 75° |
| 2026-05-08 17:00 | 28.86865 | -14.84873 | 33021 ft | 500 kts | 75° |
| 2026-05-08 17:00 | 28.87740 | -14.81026 | 33421 ft | 499 kts | 75° |
| 2026-05-08 17:00 | 28.88611 | -14.77212 | 33797 ft | 499 kts | 75° |
| 2026-05-08 17:00 | 28.89480 | -14.73393 | 34161 ft | 498 kts | 75° |
| 2026-05-08 17:01 | 28.90345 | -14.69584 | 34510 ft | 498 kts | 75° |
| 2026-05-08 17:01 | 28.91208 | -14.65774 | 34825 ft | 498 kts | 75° |
| 2026-05-08 17:01 | 28.92067 | -14.61973 | 35069 ft | 499 kts | 75° |
| 2026-05-08 17:01 | 28.92929 | -14.58151 | 35299 ft | 501 kts | 75° |
| 2026-05-08 17:02 | 28.93794 | -14.54318 | 35543 ft | 502 kts | 75° |
| 2026-05-08 17:02 | 28.94658 | -14.50483 | 35792 ft | 502 kts | 75° |
| 2026-05-08 17:02 | 28.95536 | -14.46580 | 35955 ft | 504 kts | 75° |
| 2026-05-08 17:02 | 28.96399 | -14.42745 | 35988 ft | 504 kts | 75° |
| 2026-05-08 17:03 | 28.98132 | -14.35017 | 36015 ft | 504 kts | 75° |
| 2026-05-08 17:03 | 28.99858 | -14.27292 | 35968 ft | 503 kts | 75° |
| 2026-05-08 17:04 | 29.01580 | -14.19562 | 35955 ft | 503 kts | 75° |
| 2026-05-08 17:04 | 29.03297 | -14.11828 | 35947 ft | 503 kts | 76° |
| 2026-05-08 17:05 | 29.05012 | -14.04085 | 35945 ft | 503 kts | 76° |
| 2026-05-08 17:05 | 29.06716 | -13.96364 | 35950 ft | 503 kts | 76° |
| 2026-05-08 17:06 | 29.08416 | -13.88637 | 35954 ft | 503 kts | 76° |
| 2026-05-08 17:06 | 29.10105 | -13.80943 | 35956 ft | 502 kts | 76° |
| 2026-05-08 17:07 | 29.11799 | -13.73206 | 35959 ft | 500 kts | 76° |
| 2026-05-08 17:07 | 29.13474 | -13.65508 | 35961 ft | 499 kts | 76° |
| 2026-05-08 17:08 | 29.15205 | -13.57830 | 35962 ft | 500 kts | 73° |
| 2026-05-08 17:08 | 29.17671 | -13.50442 | 35963 ft | 498 kts | 63° |
| 2026-05-08 17:09 | 29.21063 | -13.43620 | 35961 ft | 495 kts | 52° |
| 2026-05-08 17:09 | 29.25040 | -13.37169 | 35959 ft | 495 kts | 51° |
| 2026-05-08 17:10 | 29.29020 | -13.30764 | 35954 ft | 495 kts | 52° |
| 2026-05-08 17:10 | 29.32960 | -13.24340 | 35953 ft | 495 kts | 52° |
| 2026-05-08 17:11 | 29.36903 | -13.17870 | 35953 ft | 495 kts | 52° |
| 2026-05-08 17:11 | 29.40850 | -13.11379 | 35952 ft | 495 kts | 52° |
| 2026-05-08 17:12 | 29.44766 | -13.04927 | 35950 ft | 495 kts | 52° |
| 2026-05-08 17:12 | 29.48694 | -12.98445 | 35948 ft | 495 kts | 52° |
| 2026-05-08 17:13 | 29.52615 | -12.91966 | 35946 ft | 495 kts | 52° |
| 2026-05-08 17:13 | 29.56502 | -12.85531 | 35945 ft | 495 kts | 53° |
| 2026-05-08 17:14 | 29.60417 | -12.79042 | 35944 ft | 494 kts | 53° |
| 2026-05-08 17:14 | 29.64339 | -12.72525 | 35943 ft | 495 kts | 53° |
| 2026-05-08 17:15 | 29.68238 | -12.66038 | 35942 ft | 496 kts | 53° |
| 2026-05-08 17:15 | 29.72166 | -12.59488 | 35941 ft | 496 kts | 53° |
| 2026-05-08 17:16 | 29.76049 | -12.52977 | 35939 ft | 496 kts | 53° |
| 2026-05-08 17:16 | 29.79932 | -12.46411 | 35939 ft | 496 kts | 54° |
| 2026-05-08 17:17 | 29.83789 | -12.39877 | 35938 ft | 496 kts | 54° |
| 2026-05-08 17:17 | 29.87672 | -12.33292 | 35934 ft | 495 kts | 54° |
| 2026-05-08 17:18 | 29.91516 | -12.26761 | 35935 ft | 495 kts | 54° |
| 2026-05-08 17:18 | 29.95367 | -12.20206 | 35935 ft | 494 kts | 55° |
| 2026-05-08 17:19 | 29.99209 | -12.13655 | 35934 ft | 494 kts | 55° |
| 2026-05-08 17:19 | 30.03046 | -12.07129 | 35933 ft | 494 kts | 54° |
| 2026-05-08 17:20 | 30.06933 | -12.00579 | 35932 ft | 494 kts | 54° |
| 2026-05-08 17:20 | 30.10811 | -11.94028 | 35928 ft | 494 kts | 54° |
| 2026-05-08 17:21 | 30.14659 | -11.87507 | 35926 ft | 494 kts | 54° |
| 2026-05-08 17:21 | 30.18507 | -11.80973 | 35923 ft | 494 kts | 54° |
| 2026-05-08 17:22 | 30.22372 | -11.74399 | 35921 ft | 494 kts | 54° |
| 2026-05-08 17:22 | 30.26224 | -11.67838 | 35923 ft | 494 kts | 54° |
| 2026-05-08 17:23 | 30.30068 | -11.61278 | 35925 ft | 494 kts | 54° |
| 2026-05-08 17:23 | 30.33915 | -11.54704 | 35929 ft | 495 kts | 54° |
| 2026-05-08 17:24 | 30.37772 | -11.48102 | 35929 ft | 495 kts | 54° |
| 2026-05-08 17:24 | 30.41612 | -11.41517 | 35931 ft | 495 kts | 54° |
| 2026-05-08 17:25 | 30.45449 | -11.34929 | 35935 ft | 496 kts | 55° |
| 2026-05-08 17:25 | 30.49311 | -11.28285 | 35937 ft | 496 kts | 55° |
| 2026-05-08 17:26 | 30.53150 | -11.21667 | 35940 ft | 496 kts | 55° |
| 2026-05-08 17:26 | 30.57003 | -11.15016 | 35941 ft | 496 kts | 55° |
| 2026-05-08 17:27 | 30.60827 | -11.08404 | 35941 ft | 496 kts | 55° |
| 2026-05-08 17:27 | 30.64682 | -11.01727 | 35939 ft | 497 kts | 55° |
| 2026-05-08 17:28 | 30.68510 | -10.95087 | 35937 ft | 497 kts | 55° |
| 2026-05-08 17:28 | 30.72336 | -10.88438 | 35936 ft | 497 kts | 55° |
| 2026-05-08 17:29 | 30.76172 | -10.81763 | 35936 ft | 497 kts | 56° |
| 2026-05-08 17:29 | 30.80015 | -10.75062 | 35937 ft | 497 kts | 56° |
| 2026-05-08 17:30 | 30.83827 | -10.68402 | 35938 ft | 497 kts | 56° |
| 2026-05-08 17:30 | 30.87642 | -10.61729 | 35939 ft | 497 kts | 56° |
| 2026-05-08 17:31 | 30.91456 | -10.55045 | 35940 ft | 497 kts | 56° |
| 2026-05-08 17:31 | 30.95273 | -10.48344 | 35941 ft | 497 kts | 56° |
| 2026-05-08 17:32 | 30.99100 | -10.41613 | 35942 ft | 497 kts | 56° |
| 2026-05-08 17:32 | 31.02899 | -10.34921 | 35944 ft | 497 kts | 56° |
| 2026-05-08 17:33 | 31.06707 | -10.28206 | 35944 ft | 497 kts | 56° |
| 2026-05-08 17:33 | 31.10505 | -10.21492 | 35946 ft | 497 kts | 57° |
| 2026-05-08 17:34 | 31.14308 | -10.14756 | 35948 ft | 498 kts | 57° |
| 2026-05-08 17:34 | 31.18109 | -10.08014 | 35950 ft | 498 kts | 57° |
| 2026-05-08 17:35 | 31.21920 | -10.01243 | 35952 ft | 498 kts | 57° |
| 2026-05-08 17:35 | 31.25702 | -9.94509 | 35954 ft | 498 kts | 57° |
| 2026-05-08 17:36 | 31.29479 | -9.87769 | 35957 ft | 498 kts | 57° |
| 2026-05-08 17:36 | 31.33275 | -9.80987 | 35956 ft | 498 kts | 57° |
| 2026-05-08 17:37 | 31.37144 | -9.74278 | 35957 ft | 497 kts | 52° |
| 2026-05-08 17:37 | 31.41744 | -9.68333 | 35961 ft | 495 kts | 39° |
| 2026-05-08 17:38 | 31.47181 | -9.63467 | 35964 ft | 490 kts | 28° |
| 2026-05-08 17:38 | 31.52992 | -9.59323 | 35967 ft | 489 kts | 26° |
| 2026-05-08 17:39 | 31.58824 | -9.55195 | 35968 ft | 489 kts | 26° |
| 2026-05-08 17:39 | 31.64618 | -9.51035 | 35969 ft | 489 kts | 27° |
| 2026-05-08 17:40 | 31.70400 | -9.46854 | 35970 ft | 489 kts | 27° |
| 2026-05-08 17:40 | 31.76174 | -9.42668 | 35971 ft | 489 kts | 27° |
| 2026-05-08 17:41 | 31.81951 | -9.38473 | 35971 ft | 489 kts | 27° |
| 2026-05-08 17:41 | 31.87790 | -9.34226 | 35965 ft | 490 kts | 27° |
| 2026-05-08 17:42 | 31.93606 | -9.29990 | 35960 ft | 490 kts | 27° |
| 2026-05-08 17:42 | 31.99358 | -9.25793 | 35951 ft | 490 kts | 27° |
| 2026-05-08 17:43 | 32.05183 | -9.21537 | 35944 ft | 490 kts | 27° |
| 2026-05-08 17:43 | 32.10950 | -9.17318 | 35953 ft | 491 kts | 27° |
| 2026-05-08 17:44 | 32.16790 | -9.13040 | 35954 ft | 492 kts | 27° |
| 2026-05-08 17:44 | 32.22595 | -9.08781 | 35935 ft | 493 kts | 27° |
| 2026-05-08 17:45 | 32.28423 | -9.04496 | 35925 ft | 493 kts | 28° |
| 2026-05-08 17:45 | 32.34241 | -9.00213 | 35922 ft | 493 kts | 27° |
| 2026-05-08 17:46 | 32.40064 | -8.95920 | 35919 ft | 493 kts | 27° |
| 2026-05-08 17:46 | 32.45850 | -8.91647 | 35920 ft | 493 kts | 27° |
| 2026-05-08 17:47 | 32.51681 | -8.87334 | 35919 ft | 494 kts | 27° |
| 2026-05-08 17:47 | 32.56526 | -8.83746 | 35917 ft | 494 kts | 27° |
| 2026-05-08 17:48 | 32.63315 | -8.78710 | 35914 ft | 494 kts | 27° |
| 2026-05-08 17:48 | 32.69126 | -8.74391 | 35913 ft | 494 kts | 27° |
| 2026-05-08 17:49 | 32.74964 | -8.70046 | 35911 ft | 494 kts | 27° |
| 2026-05-08 17:49 | 32.80784 | -8.65708 | 35910 ft | 495 kts | 27° |
| 2026-05-08 17:50 | 32.86589 | -8.61374 | 35908 ft | 495 kts | 27° |
| 2026-05-08 17:50 | 32.92418 | -8.57015 | 35907 ft | 496 kts | 27° |
| 2026-05-08 17:51 | 32.98240 | -8.52654 | 35906 ft | 496 kts | 27° |
| 2026-05-08 17:51 | 33.04087 | -8.48267 | 35907 ft | 496 kts | 27° |
| 2026-05-08 17:52 | 33.09893 | -8.43902 | 35906 ft | 496 kts | 27° |
| 2026-05-08 17:53 | 33.18651 | -8.37305 | 35904 ft | 497 kts | 27° |
| 2026-05-08 17:53 | 33.24520 | -8.32897 | 35901 ft | 497 kts | 28° |
| 2026-05-08 17:54 | 33.30401 | -8.28480 | 35901 ft | 498 kts | 28° |
| 2026-05-08 17:54 | 33.36237 | -8.24083 | 35901 ft | 499 kts | 28° |
| 2026-05-08 17:55 | 33.42085 | -8.19666 | 35901 ft | 499 kts | 28° |
| 2026-05-08 17:55 | 33.47959 | -8.15224 | 35901 ft | 500 kts | 28° |
| 2026-05-08 17:56 | 33.53841 | -8.10767 | 35901 ft | 500 kts | 28° |
| 2026-05-08 17:56 | 33.59710 | -8.06313 | 35900 ft | 501 kts | 28° |
| 2026-05-08 17:57 | 33.65593 | -8.01842 | 35899 ft | 501 kts | 28° |
| 2026-05-08 17:57 | 33.71469 | -7.97369 | 35897 ft | 501 kts | 28° |
| 2026-05-08 17:58 | 33.77378 | -7.92863 | 35896 ft | 501 kts | 28° |
| 2026-05-08 17:58 | 33.83223 | -7.88398 | 35896 ft | 501 kts | 28° |
| 2026-05-08 17:59 | 33.89120 | -7.83889 | 35896 ft | 501 kts | 28° |
| 2026-05-08 17:59 | 33.94982 | -7.79397 | 35895 ft | 501 kts | 28° |
| 2026-05-08 18:00 | 34.00874 | -7.74875 | 35894 ft | 502 kts | 28° |
| 2026-05-08 18:00 | 34.09697 | -7.68088 | 35895 ft | 502 kts | 28° |
| 2026-05-08 18:01 | 34.15595 | -7.63542 | 35894 ft | 502 kts | 28° |
| 2026-05-08 18:01 | 34.21433 | -7.59034 | 35891 ft | 502 kts | 28° |
| 2026-05-08 18:02 | 34.26352 | -7.55230 | 35887 ft | 502 kts | 28° |
| 2026-05-08 18:02 | 34.33212 | -7.49917 | 35881 ft | 502 kts | 28° |
| 2026-05-08 18:03 | 34.39092 | -7.45354 | 35879 ft | 502 kts | 28° |
| 2026-05-08 18:03 | 34.44933 | -7.40813 | 35877 ft | 502 kts | 28° |
| 2026-05-08 18:04 | 34.50832 | -7.36219 | 35873 ft | 502 kts | 28° |
| 2026-05-08 18:04 | 34.56705 | -7.31640 | 35869 ft | 503 kts | 28° |
| 2026-05-08 18:05 | 34.62588 | -7.27043 | 35872 ft | 503 kts | 28° |
| 2026-05-08 18:05 | 34.68485 | -7.22426 | 35874 ft | 503 kts | 28° |
| 2026-05-08 18:06 | 34.74355 | -7.17822 | 35876 ft | 503 kts | 28° |
| 2026-05-08 18:06 | 34.80226 | -7.13212 | 35875 ft | 504 kts | 28° |
| 2026-05-08 18:07 | 34.86075 | -7.08611 | 35872 ft | 504 kts | 28° |
| 2026-05-08 18:07 | 34.91960 | -7.03973 | 35869 ft | 504 kts | 28° |
| 2026-05-08 18:08 | 34.97865 | -6.99312 | 35867 ft | 504 kts | 28° |
| 2026-05-08 18:08 | 35.03715 | -6.94685 | 35866 ft | 504 kts | 28° |
| 2026-05-08 18:09 | 35.09588 | -6.90030 | 35865 ft | 505 kts | 28° |
| 2026-05-08 18:09 | 35.15503 | -6.85334 | 35863 ft | 505 kts | 28° |
| 2026-05-08 18:10 | 35.21370 | -6.80668 | 35862 ft | 505 kts | 28° |
| 2026-05-08 18:10 | 35.27243 | -6.75988 | 35861 ft | 505 kts | 28° |
| 2026-05-08 18:11 | 35.32818 | -6.70719 | 35859 ft | 512 kts | 40° |
| 2026-05-08 18:11 | 35.37499 | -6.64128 | 35857 ft | 515 kts | 55° |
| 2026-05-08 18:12 | 35.41165 | -6.56625 | 35857 ft | 514 kts | 62° |
| 2026-05-08 18:12 | 35.44639 | -6.49037 | 35855 ft | 515 kts | 60° |
| 2026-05-08 18:13 | 35.48387 | -6.41557 | 35853 ft | 515 kts | 58° |
| 2026-05-08 18:13 | 35.52215 | -6.34103 | 35850 ft | 516 kts | 59° |
| 2026-05-08 18:14 | 35.56004 | -6.26638 | 35850 ft | 516 kts | 59° |
| 2026-05-08 18:14 | 35.59757 | -6.19194 | 35850 ft | 516 kts | 59° |
| 2026-05-08 18:15 | 35.63519 | -6.11713 | 35850 ft | 517 kts | 59° |
| 2026-05-08 18:15 | 35.67297 | -6.04182 | 35850 ft | 517 kts | 59° |
| 2026-05-08 18:16 | 35.71044 | -5.96692 | 35850 ft | 517 kts | 59° |
| 2026-05-08 18:16 | 35.74605 | -5.89061 | 35848 ft | 516 kts | 65° |
| 2026-05-08 18:17 | 35.77736 | -5.81092 | 35848 ft | 515 kts | 66° |
| 2026-05-08 18:17 | 35.80790 | -5.73189 | 35849 ft | 515 kts | 66° |
| 2026-05-08 18:18 | 35.83895 | -5.65261 | 35851 ft | 515 kts | 65° |
| 2026-05-08 18:18 | 35.87095 | -5.57368 | 35855 ft | 516 kts | 65° |
| 2026-05-08 18:19 | 35.90295 | -5.49500 | 35861 ft | 516 kts | 65° |
| 2026-05-08 18:19 | 35.93495 | -5.41570 | 35867 ft | 515 kts | 65° |
| 2026-05-08 18:20 | 35.96666 | -5.33675 | 35871 ft | 515 kts | 65° |
| 2026-05-08 18:20 | 35.99850 | -5.25735 | 35878 ft | 514 kts | 65° |
| 2026-05-08 18:21 | 36.03072 | -5.17920 | 35884 ft | 514 kts | 64° |
| 2026-05-08 18:21 | 36.06376 | -5.10102 | 35905 ft | 515 kts | 64° |
| 2026-05-08 18:22 | 36.09659 | -5.02269 | 35913 ft | 517 kts | 64° |
| 2026-05-08 18:22 | 36.13052 | -4.94283 | 35896 ft | 518 kts | 60° |
| 2026-05-08 18:23 | 36.17029 | -4.86970 | 35893 ft | 516 kts | 50° |
| 2026-05-08 18:23 | 36.21813 | -4.80399 | 35894 ft | 514 kts | 43° |
| 2026-05-08 18:24 | 36.26822 | -4.74066 | 35895 ft | 513 kts | 42° |
| 2026-05-08 18:24 | 36.31773 | -4.67736 | 35901 ft | 513 kts | 43° |
| 2026-05-08 18:25 | 36.36681 | -4.61391 | 35904 ft | 512 kts | 43° |
| 2026-05-08 18:25 | 36.41589 | -4.55018 | 35907 ft | 512 kts | 43° |
| 2026-05-08 18:26 | 36.46527 | -4.48593 | 35910 ft | 512 kts | 43° |
| 2026-05-08 18:26 | 36.51423 | -4.42221 | 35911 ft | 511 kts | 43° |
| 2026-05-08 18:27 | 36.55508 | -4.36893 | 35913 ft | 510 kts | 44° |
| 2026-05-08 18:27 | 36.61203 | -4.29436 | 35923 ft | 509 kts | 45° |
| 2026-05-08 18:28 | 36.66063 | -4.23053 | 35929 ft | 509 kts | 45° |
| 2026-05-08 18:28 | 36.70918 | -4.16672 | 35931 ft | 509 kts | 45° |
| 2026-05-08 18:29 | 36.75773 | -4.10279 | 35931 ft | 510 kts | 45° |
| 2026-05-08 18:29 | 36.80642 | -4.03854 | 35932 ft | 510 kts | 45° |
| 2026-05-08 18:30 | 36.85526 | -3.97399 | 35938 ft | 510 kts | 45° |
| 2026-05-08 18:30 | 36.90381 | -3.90966 | 35920 ft | 510 kts | 45° |
| 2026-05-08 18:31 | 36.95227 | -3.84532 | 35918 ft | 509 kts | 45° |
| 2026-05-08 18:31 | 37.00065 | -3.78101 | 35957 ft | 509 kts | 45° |
| 2026-05-08 18:32 | 37.04902 | -3.71656 | 35911 ft | 509 kts | 45° |
| 2026-05-08 18:32 | 37.09567 | -3.64941 | 35880 ft | 511 kts | 52° |
| 2026-05-08 18:33 | 37.13456 | -3.57405 | 35817 ft | 511 kts | 63° |
| 2026-05-08 18:33 | 37.16596 | -3.49457 | 35685 ft | 511 kts | 66° |
| 2026-05-08 18:34 | 37.19680 | -3.41450 | 35619 ft | 511 kts | 65° |
| 2026-05-08 18:34 | 37.22823 | -3.33446 | 35651 ft | 511 kts | 66° |
| 2026-05-08 18:35 | 37.25954 | -3.25497 | 35736 ft | 511 kts | 66° |
| 2026-05-08 18:35 | 37.29102 | -3.17465 | 35839 ft | 511 kts | 66° |
| 2026-05-08 18:36 | 37.32225 | -3.09470 | 35895 ft | 511 kts | 65° |
| 2026-05-08 18:36 | 37.35335 | -3.01487 | 35929 ft | 510 kts | 65° |
| 2026-05-08 18:37 | 37.38438 | -2.93503 | 35941 ft | 511 kts | 65° |
| 2026-05-08 18:37 | 37.41539 | -2.85506 | 35919 ft | 510 kts | 65° |
| 2026-05-08 18:38 | 37.44642 | -2.77494 | 35930 ft | 510 kts | 65° |
| 2026-05-08 18:38 | 37.47728 | -2.69491 | 35793 ft | 510 kts | 65° |
| 2026-05-08 18:39 | 37.49284 | -2.65448 | 35620 ft | 510 kts | 65° |
| 2026-05-08 18:39 | 37.50833 | -2.61416 | 35380 ft | 510 kts | 65° |
| 2026-05-08 18:39 | 37.52373 | -2.57405 | 35129 ft | 510 kts | 65° |
| 2026-05-08 18:39 | 37.53901 | -2.53421 | 34990 ft | 511 kts | 65° |
| 2026-05-08 18:40 | 37.56982 | -2.45366 | 34880 ft | 511 kts | 65° |
| 2026-05-08 18:40 | 37.60064 | -2.37285 | 34921 ft | 512 kts | 65° |
| 2026-05-08 18:41 | 37.63151 | -2.29177 | 34969 ft | 513 kts | 65° |
| 2026-05-08 18:41 | 37.66228 | -2.21092 | 35048 ft | 514 kts | 65° |
| 2026-05-08 18:42 | 37.69303 | -2.12989 | 35066 ft | 513 kts | 65° |
| 2026-05-08 18:42 | 37.72381 | -2.04846 | 35052 ft | 513 kts | 65° |
| 2026-05-08 18:43 | 37.75448 | -1.96711 | 35059 ft | 514 kts | 65° |
| 2026-05-08 18:43 | 37.78507 | -1.88579 | 35315 ft | 514 kts | 65° |
| 2026-05-08 18:44 | 37.80030 | -1.84520 | 35476 ft | 515 kts | 65° |
| 2026-05-08 18:44 | 37.81562 | -1.80434 | 35622 ft | 515 kts | 65° |
| 2026-05-08 18:44 | 37.83076 | -1.76389 | 35775 ft | 515 kts | 65° |
| 2026-05-08 18:44 | 37.84619 | -1.72262 | 35884 ft | 515 kts | 65° |
| 2026-05-08 18:45 | 37.87652 | -1.64129 | 36007 ft | 514 kts | 65° |
| 2026-05-08 18:45 | 37.90693 | -1.55948 | 36014 ft | 513 kts | 65° |
| 2026-05-08 18:46 | 37.93717 | -1.47804 | 36005 ft | 513 kts | 65° |
| 2026-05-08 18:46 | 37.96748 | -1.39617 | 35968 ft | 513 kts | 65° |
| 2026-05-08 18:47 | 37.99746 | -1.31493 | 35952 ft | 512 kts | 66° |
| 2026-05-08 18:47 | 38.02751 | -1.23321 | 35952 ft | 512 kts | 66° |
| 2026-05-08 18:48 | 38.05747 | -1.15152 | 35956 ft | 512 kts | 66° |
| 2026-05-08 18:48 | 38.08746 | -1.06955 | 35970 ft | 513 kts | 66° |
| 2026-05-08 18:49 | 38.11736 | -0.98758 | 35970 ft | 514 kts | 66° |
| 2026-05-08 18:49 | 38.14734 | -0.90516 | 35962 ft | 514 kts | 66° |
| 2026-05-08 18:50 | 38.17721 | -0.82280 | 35958 ft | 514 kts | 66° |
| 2026-05-08 18:50 | 38.20695 | -0.74062 | 35956 ft | 514 kts | 66° |
| 2026-05-08 18:51 | 38.23671 | -0.65811 | 35955 ft | 515 kts | 66° |
| 2026-05-08 18:51 | 38.26633 | -0.57565 | 35956 ft | 515 kts | 66° |
| 2026-05-08 18:52 | 38.29390 | -0.49153 | 35956 ft | 515 kts | 69° |
| 2026-05-08 18:52 | 38.32037 | -0.40779 | 35957 ft | 515 kts | 69° |
| 2026-05-08 18:53 | 38.34729 | -0.32294 | 35954 ft | 515 kts | 69° |
| 2026-05-08 18:53 | 38.37442 | -0.23885 | 35955 ft | 515 kts | 68° |
| 2026-05-08 18:54 | 38.40233 | -0.15568 | 35955 ft | 515 kts | 68° |
| 2026-05-08 18:54 | 38.43043 | -0.07155 | 35956 ft | 515 kts | 68° |
| 2026-05-08 18:55 | 38.47147 | 0.05403 | 35945 ft | 515 kts | 68° |
| 2026-05-08 18:56 | 38.49855 | 0.13840 | 35939 ft | 515 kts | 68° |
| 2026-05-08 18:56 | 38.52554 | 0.22281 | 35888 ft | 515 kts | 68° |
| 2026-05-08 18:56 | 38.53893 | 0.26481 | 35662 ft | 513 kts | 68° |
| 2026-05-08 18:57 | 38.55242 | 0.30716 | 35362 ft | 510 kts | 67° |
| 2026-05-08 18:57 | 38.56129 | 0.33502 | 35095 ft | 510 kts | 67° |
| 2026-05-08 18:57 | 38.57895 | 0.39051 | 34359 ft | 512 kts | 66° |
| 2026-05-08 18:57 | 38.59239 | 0.43276 | 33745 ft | 514 kts | 66° |
| 2026-05-08 18:58 | 38.60570 | 0.47471 | 33323 ft | 510 kts | 66° |
| 2026-05-08 18:58 | 38.61890 | 0.51641 | 32926 ft | 505 kts | 66° |
| 2026-05-08 18:58 | 38.63197 | 0.55781 | 32456 ft | 500 kts | 66° |
| 2026-05-08 18:58 | 38.64485 | 0.59886 | 31978 ft | 496 kts | 66° |
| 2026-05-08 18:59 | 38.65731 | 0.63976 | 31525 ft | 491 kts | 69° |
| 2026-05-08 18:59 | 38.66743 | 0.68109 | 31126 ft | 486 kts | 76° |
| 2026-05-08 18:59 | 38.67476 | 0.72297 | 30691 ft | 479 kts | 81° |
| 2026-05-08 18:59 | 38.67981 | 0.76471 | 30281 ft | 473 kts | 84° |
| 2026-05-08 19:00 | 38.68271 | 0.79240 | 30006 ft | 469 kts | 84° |
| 2026-05-08 19:00 | 38.68832 | 0.84700 | 29465 ft | 462 kts | 83° |
| 2026-05-08 19:00 | 38.69249 | 0.88702 | 29104 ft | 457 kts | 83° |
| 2026-05-08 19:00 | 38.69686 | 0.92729 | 28755 ft | 452 kts | 83° |
| 2026-05-08 19:01 | 38.70114 | 0.96677 | 28469 ft | 445 kts | 83° |
| 2026-05-08 19:01 | 38.70537 | 1.00576 | 28203 ft | 438 kts | 83° |
| 2026-05-08 19:01 | 38.70960 | 1.04428 | 27925 ft | 436 kts | 83° |
| 2026-05-08 19:01 | 38.71369 | 1.08198 | 27659 ft | 433 kts | 83° |
| 2026-05-08 19:02 | 38.71780 | 1.12004 | 27392 ft | 431 kts | 83° |
| 2026-05-08 19:02 | 38.72189 | 1.15787 | 27140 ft | 428 kts | 83° |
| 2026-05-08 19:02 | 38.72592 | 1.19573 | 26860 ft | 425 kts | 83° |
| 2026-05-08 19:02 | 38.72989 | 1.23254 | 26539 ft | 423 kts | 83° |
| 2026-05-08 19:03 | 38.73387 | 1.26962 | 26189 ft | 421 kts | 83° |
| 2026-05-08 19:03 | 38.73782 | 1.30659 | 25823 ft | 418 kts | 83° |
| 2026-05-08 19:03 | 38.74175 | 1.34347 | 25439 ft | 415 kts | 83° |
| 2026-05-08 19:03 | 38.74560 | 1.37976 | 25069 ft | 412 kts | 83° |
| 2026-05-08 19:04 | 38.74945 | 1.41619 | 24697 ft | 409 kts | 83° |
| 2026-05-08 19:04 | 38.75320 | 1.45182 | 24332 ft | 406 kts | 83° |
| 2026-05-08 19:04 | 38.75693 | 1.48730 | 23966 ft | 403 kts | 83° |
| 2026-05-08 19:04 | 38.76062 | 1.52255 | 23603 ft | 400 kts | 83° |
| 2026-05-08 19:05 | 38.76431 | 1.55783 | 23239 ft | 397 kts | 83° |
| 2026-05-08 19:05 | 38.76794 | 1.59275 | 22878 ft | 394 kts | 84° |
| 2026-05-08 19:05 | 38.77152 | 1.62733 | 22521 ft | 392 kts | 84° |
| 2026-05-08 19:05 | 38.77508 | 1.66176 | 22158 ft | 389 kts | 84° |
| 2026-05-08 19:06 | 38.77860 | 1.69588 | 21793 ft | 386 kts | 84° |
| 2026-05-08 19:06 | 38.78209 | 1.72987 | 21427 ft | 384 kts | 84° |
| 2026-05-08 19:06 | 38.78551 | 1.76337 | 21064 ft | 381 kts | 84° |
| 2026-05-08 19:06 | 38.78892 | 1.79674 | 20703 ft | 378 kts | 84° |
| 2026-05-08 19:07 | 38.79231 | 1.83012 | 20341 ft | 375 kts | 84° |
| 2026-05-08 19:07 | 38.79561 | 1.86269 | 19987 ft | 372 kts | 84° |
| 2026-05-08 19:07 | 38.79897 | 1.89556 | 19626 ft | 368 kts | 83° |
| 2026-05-08 19:07 | 38.80557 | 1.92691 | 19253 ft | 366 kts | 65° |
| 2026-05-08 19:08 | 38.81841 | 1.95452 | 18900 ft | 359 kts | 51° |
| 2026-05-08 19:08 | 38.83358 | 1.97944 | 18551 ft | 356 kts | 48° |
| 2026-05-08 19:08 | 38.84914 | 2.00399 | 18199 ft | 352 kts | 48° |
| 2026-05-08 19:08 | 38.86443 | 2.02822 | 17853 ft | 349 kts | 48° |
| 2026-05-08 19:09 | 38.87942 | 2.05235 | 17511 ft | 347 kts | 49° |
| 2026-05-08 19:09 | 38.89436 | 2.07672 | 17165 ft | 345 kts | 49° |
| 2026-05-08 19:09 | 38.90913 | 2.10101 | 16820 ft | 343 kts | 49° |
| 2026-05-08 19:09 | 38.92364 | 2.12500 | 16495 ft | 340 kts | 49° |
| 2026-05-08 19:10 | 38.93809 | 2.14893 | 16167 ft | 337 kts | 49° |
| 2026-05-08 19:10 | 38.95227 | 2.17245 | 15840 ft | 335 kts | 49° |
| 2026-05-08 19:10 | 38.96642 | 2.19591 | 15511 ft | 333 kts | 49° |
| 2026-05-08 19:10 | 38.98064 | 2.21951 | 15171 ft | 331 kts | 49° |
| 2026-05-08 19:11 | 38.99452 | 2.24257 | 14833 ft | 329 kts | 50° |
| 2026-05-08 19:11 | 39.00859 | 2.26597 | 14487 ft | 326 kts | 50° |
| 2026-05-08 19:11 | 39.02229 | 2.28877 | 14215 ft | 319 kts | 50° |
| 2026-05-08 19:11 | 39.03572 | 2.31117 | 14007 ft | 312 kts | 50° |
| 2026-05-08 19:12 | 39.04882 | 2.33295 | 13698 ft | 308 kts | 50° |
| 2026-05-08 19:12 | 39.06173 | 2.35445 | 13389 ft | 304 kts | 50° |
| 2026-05-08 19:12 | 39.07462 | 2.37600 | 13077 ft | 301 kts | 50° |
| 2026-05-08 19:12 | 39.08720 | 2.39709 | 12768 ft | 298 kts | 50° |
| 2026-05-08 19:13 | 39.09983 | 2.41826 | 12457 ft | 295 kts | 50° |
| 2026-05-08 19:13 | 39.11236 | 2.43925 | 12148 ft | 294 kts | 50° |
| 2026-05-08 19:13 | 39.12482 | 2.46006 | 11844 ft | 292 kts | 51° |
| 2026-05-08 19:13 | 39.13719 | 2.48080 | 11539 ft | 290 kts | 51° |
| 2026-05-08 19:14 | 39.14926 | 2.50100 | 11228 ft | 288 kts | 51° |
| 2026-05-08 19:14 | 39.16144 | 2.52139 | 11068 ft | 282 kts | 51° |
| 2026-05-08 19:14 | 39.17340 | 2.54146 | 10775 ft | 279 kts | 51° |
| 2026-05-08 19:14 | 39.18516 | 2.56120 | 10498 ft | 278 kts | 51° |
| 2026-05-08 19:15 | 39.19680 | 2.58074 | 10229 ft | 276 kts | 51° |
| 2026-05-08 19:15 | 39.20837 | 2.60020 | 9953 ft | 275 kts | 51° |
| 2026-05-08 19:15 | 39.21994 | 2.61966 | 9672 ft | 272 kts | 51° |
| 2026-05-08 19:15 | 39.23141 | 2.63894 | 9392 ft | 271 kts | 52° |
| 2026-05-08 19:16 | 39.24292 | 2.65831 | 9106 ft | 268 kts | 52° |
| 2026-05-08 19:16 | 39.25420 | 2.67734 | 8823 ft | 266 kts | 53° |
| 2026-05-08 19:16 | 39.26535 | 2.69619 | 8538 ft | 264 kts | 53° |
| 2026-05-08 19:16 | 39.27636 | 2.71477 | 8273 ft | 260 kts | 53° |
| 2026-05-08 19:17 | 39.28725 | 2.73312 | 7992 ft | 254 kts | 53° |
| 2026-05-08 19:17 | 39.29776 | 2.75083 | 7636 ft | 246 kts | 53° |
| 2026-05-08 19:17 | 39.30810 | 2.76826 | 7319 ft | 236 kts | 53° |
| 2026-05-08 19:17 | 39.31844 | 2.78389 | 7075 ft | 224 kts | 37° |
| 2026-05-08 19:18 | 39.33212 | 2.79176 | 6910 ft | 211 kts | 8° |
| 2026-05-08 19:18 | 39.34626 | 2.79039 | 6653 ft | 204 kts | 336° |
| 2026-05-08 19:18 | 39.35687 | 2.77894 | 6402 ft | 198 kts | 297° |
| 2026-05-08 19:18 | 39.35975 | 2.76203 | 6116 ft | 194 kts | 265° |
| 2026-05-08 19:19 | 39.35797 | 2.74494 | 5762 ft | 193 kts | 258° |
| 2026-05-08 19:19 | 39.35538 | 2.72782 | 5391 ft | 194 kts | 257° |
| 2026-05-08 19:19 | 39.35273 | 2.71081 | 5022 ft | 194 kts | 257° |
| 2026-05-08 19:19 | 39.35007 | 2.69387 | 4654 ft | 194 kts | 257° |
| 2026-05-08 19:20 | 39.34739 | 2.67675 | 4283 ft | 195 kts | 257° |
| 2026-05-08 19:20 | 39.34653 | 2.67104 | 4159 ft | 195 kts | 259° |
| 2026-05-08 19:20 | 39.34853 | 2.64220 | 3543 ft | 197 kts | 281° |
| 2026-05-08 19:20 | 39.35169 | 2.62494 | 3171 ft | 197 kts | 282° |
| 2026-05-08 19:21 | 39.35492 | 2.60769 | 2795 ft | 198 kts | 282° |
| 2026-05-08 19:21 | 39.35812 | 2.59033 | 2423 ft | 199 kts | 282° |
| 2026-05-08 19:21 | 39.36126 | 2.57314 | 2129 ft | 196 kts | 282° |
| 2026-05-08 19:21 | 39.36438 | 2.55604 | 2101 ft | 193 kts | 282° |
| 2026-05-08 19:22 | 39.36748 | 2.53923 | 2098 ft | 194 kts | 282° |
| 2026-05-08 19:22 | 39.37058 | 2.52238 | 2097 ft | 193 kts | 282° |
| 2026-05-08 19:22 | 39.37370 | 2.50549 | 2091 ft | 193 kts | 283° |
| 2026-05-08 19:22 | 39.37820 | 2.48908 | 2079 ft | 195 kts | 302° |
| 2026-05-08 19:23 | 39.38868 | 2.47833 | 2077 ft | 194 kts | 343° |
| 2026-05-08 19:23 | 39.40193 | 2.47783 | 2098 ft | 191 kts | 12° |
| 2026-05-08 19:23 | 39.41486 | 2.48148 | 2095 ft | 191 kts | 17° |
| 2026-05-08 19:23 | 39.42768 | 2.48569 | 2093 ft | 191 kts | 17° |
| 2026-05-08 19:24 | 39.44069 | 2.49008 | 2090 ft | 190 kts | 17° |
| 2026-05-08 19:24 | 39.45300 | 2.49593 | 2073 ft | 187 kts | 38° |
| 2026-05-08 19:24 | 39.46166 | 2.50807 | 2092 ft | 184 kts | 58° |
| 2026-05-08 19:24 | 39.46836 | 2.52233 | 2093 ft | 183 kts | 65° |
| 2026-05-08 19:25 | 39.47432 | 2.53685 | 2090 ft | 184 kts | 63° |
| 2026-05-08 19:25 | 39.48095 | 2.55090 | 2090 ft | 184 kts | 61° |
| 2026-05-08 19:25 | 39.48773 | 2.56514 | 2089 ft | 184 kts | 61° |
| 2026-05-08 19:25 | 39.49445 | 2.57928 | 2089 ft | 185 kts | 61° |
| 2026-05-08 19:26 | 39.50145 | 2.59421 | 2108 ft | 202 kts | 61° |
| 2026-05-08 19:26 | 39.50846 | 2.60995 | 2099 ft | 205 kts | 64° |
| 2026-05-08 19:26 | 39.51486 | 2.62654 | 1843 ft | 208 kts | 66° |
| 2026-05-08 19:26 | 39.52106 | 2.64369 | 1189 ft | 212 kts | 68° |
| 2026-05-08 19:27 | 39.52687 | 2.66089 | 652 ft | 209 kts | 69° |
| 2026-05-08 19:27 | 39.53234 | 2.67790 | 337 ft | 198 kts | 69° |
| 2026-05-08 19:27 | 39.53906 | 2.69336 | 188 ft | 197 kts | 57° |
| 2026-05-08 19:27 | 39.54584 | 2.70798 | 110 ft | 179 kts | 60° |
| 2026-05-08 19:28 | 39.55225 | 2.72164 | 54 ft | 175 kts | 59° |
| 2026-05-08 19:28 | 39.55787 | 2.73363 | 43 ft | 118 kts | 56° |
| 2026-05-08 19:28 | 39.56055 | 2.73972 | 44 ft | 48 kts | 57° |